Terminal Aerodrome Forecast
Issued by NWS Springfield, MO

Home | Current Version | Previous Version | Text Only | Print | Product List | Glossary On
Versions: 1 2 3 4 5 6 7 8 9 10 11 12 13 14 15 16 17 18 19 20 21 22
000
FTUS43 KSGF 221122
TAFSGF
TAF
KSGF 221122Z 2212/2312 19010KT P6SM SKC
     FM221500 22018G28KT P6SM BKN100
     FM221800 23022G31KT P6SM VCSH OVC025
     FM230600 29018G27KT P6SM OVC025
     FM230900 30014G27KT P6SM BKN035=

USA.gov is the U.S. government's official web portal to all federal, state and local government web resources and services.